aviador You're here:

SCIP Decoded Metar

EASTER ISLAND in CHILE
Report Time2017-08-21 23:00:00
UTC Time2017-08-21 23:56:12
Flight Rules mvfr MVFR
Wind130° at 16 kt
W.Decomp.*RWY 10: 15.5 kt HW 4.1 kt RCW
W.Rank130° ranks 11
Current wind is above 130° avg. (7.3)
Visibility9999 m
Phenomena:N/A
Clouds:Broken 020 Hf
Expected CloudBase > 2,400 ft AGL from Temp-Dew spread
Ceiling2,000 ft
Temp19°C (ISA +4)
Dew Point13°C (68% RH)
AAT14.2°C
QNH1023 hPa
Density Alt614 ft
Elevation226 ft
Report Wrong Elevation
Raw Report
SCIP 212300Z 13016KT 9999 BKN020 19/13 Q1023 NOSIG=

Extra information for SCIP:More info

Metar Taf Metar & Taf Last 4 Metars F.Rules Stats Wind Profile Meteogram Temp Stats Airport Information Weather charts Add Link Nearby VenuesMetar ALERT Operation Metar Decoded Social comments